Berkeley Lake, Georgia
Current Conditions -  °F | °C
As of 12:45 PM on Thursday 29 Jan 2015 (Local Time) from KLZU Reporting Station
Clear Clear  
Wind Chill: 52°   Ceiling: Unl
Heat Index: 52°   Visibility: 10mi
Dew Point: 25°   Wind: 7mph
Humidity: 35%   Direction: 240°WSW
Pressure: 30.23"   Gusts: NA
Location:  33.9805°N, 84.1528°W
Report Text: KLZU 291745Z 24006KT 10SM CLR 11/M04 A3023 RMK ATIS INFO S ; RWY 25 ; BK
Loading
Personal Weather Stations






























Interactive Weather Map New forecast layout! Learn more

10-Day Weather Forecast

Advertisements
Track Severe Weather on mobile